sensor_id;sensor_type;location;lat;lon;timestamp;P1;durP1;ratioP1;P2;durP2;ratioP2
39196;SDS011;42889;51.112;13.772;2022-08-03T00:00:24;4.43;;;2.10;;
39196;SDS011;42889;51.112;13.772;2022-08-03T00:02:51;7.05;;;2.20;;
39196;SDS011;42889;51.112;13.772;2022-08-03T00:05:18;4.55;;;1.90;;
39196;SDS011;42889;51.112;13.772;2022-08-03T00:07:45;3.70;;;2.30;;
39196;SDS011;42889;51.112;13.772;2022-08-03T00:10:13;3.75;;;2.20;;
39196;SDS011;42889;51.112;13.772;2022-08-03T00:12:40;5.53;;;2.20;;
39196;SDS011;42889;51.112;13.772;2022-08-03T00:15:07;4.13;;;2.05;;
39196;SDS011;42889;51.112;13.772;2022-08-03T00:17:40;5.68;;;2.47;;
39196;SDS011;42889;51.112;13.772;2022-08-03T00:20:19;5.88;;;2.40;;
39196;SDS011;42889;51.112;13.772;2022-08-03T00:22:47;3.10;;;2.00;;
39196;SDS011;42889;51.112;13.772;2022-08-03T00:25:14;3.83;;;2.40;;
39196;SDS011;42889;51.112;13.772;2022-08-03T00:27:41;6.35;;;2.38;;
39196;SDS011;42889;51.112;13.772;2022-08-03T00:30:08;4.72;;;2.33;;
39196;SDS011;42889;51.112;13.772;2022-08-03T00:32:35;5.72;;;2.35;;
39196;SDS011;42889;51.112;13.772;2022-08-03T00:35:04;5.65;;;2.25;;
39196;SDS011;42889;51.112;13.772;2022-08-03T00:37:34;4.95;;;2.50;;
39196;SDS011;42889;51.112;13.772;2022-08-03T00:40:07;5.70;;;2.45;;
39196;SDS011;42889;51.112;13.772;2022-08-03T00:43:12;3.63;;;2.30;;
39196;SDS011;42889;51.112;13.772;2022-08-03T00:45:33;7.32;;;2.40;;
39196;SDS011;42889;51.112;13.772;2022-08-03T00:48:03;4.60;;;2.40;;
39196;SDS011;42889;51.112;13.772;2022-08-03T00:50:32;4.90;;;2.30;;
39196;SDS011;42889;51.112;13.772;2022-08-03T00:53:01;3.40;;;2.20;;
39196;SDS011;42889;51.112;13.772;2022-08-03T00:55:30;10.80;;;2.93;;
39196;SDS011;42889;51.112;13.772;2022-08-03T00:57:58;5.30;;;2.38;;
39196;SDS011;42889;51.112;13.772;2022-08-03T01:00:26;3.33;;;2.40;;
39196;SDS011;42889;51.112;13.772;2022-08-03T01:02:53;4.80;;;2.40;;
39196;SDS011;42889;51.112;13.772;2022-08-03T01:05:19;3.83;;;2.33;;
39196;SDS011;42889;51.112;13.772;2022-08-03T01:10:53;3.90;;;2.70;;
39196;SDS011;42889;51.112;13.772;2022-08-03T01:13:36;3.55;;;2.78;;
39196;SDS011;42889;51.112;13.772;2022-08-03T01:16:58;5.82;;;2.78;;
39196;SDS011;42889;51.112;13.772;2022-08-03T01:22:28;5.57;;;2.67;;
39196;SDS011;42889;51.112;13.772;2022-08-03T01:31:05;3.92;;;2.78;;
39196;SDS011;42889;51.112;13.772;2022-08-03T01:33:35;5.47;;;2.72;;
39196;SDS011;42889;51.112;13.772;2022-08-03T01:38:33;8.15;;;3.15;;
39196;SDS011;42889;51.112;13.772;2022-08-03T01:41:12;4.45;;;2.90;;
39196;SDS011;42889;51.112;13.772;2022-08-03T01:43:43;4.68;;;3.22;;
39196;SDS011;42889;51.112;13.772;2022-08-03T01:46:34;6.30;;;3.25;;
39196;SDS011;42889;51.112;13.772;2022-08-03T01:49:03;6.80;;;3.70;;
39196;SDS011;42889;51.112;13.772;2022-08-03T01:51:34;4.88;;;3.20;;
39196;SDS011;42889;51.112;13.772;2022-08-03T01:54:23;5.40;;;3.67;;
39196;SDS011;42889;51.112;13.772;2022-08-03T01:56:52;5.38;;;3.72;;
39196;SDS011;42889;51.112;13.772;2022-08-03T01:59:21;5.70;;;3.40;;
39196;SDS011;42889;51.112;13.772;2022-08-03T02:01:51;6.50;;;3.50;;
39196;SDS011;42889;51.112;13.772;2022-08-03T02:04:40;7.28;;;3.47;;
39196;SDS011;42889;51.112;13.772;2022-08-03T02:07:09;5.97;;;4.20;;
39196;SDS011;42889;51.112;13.772;2022-08-03T02:09:37;8.98;;;4.30;;
39196;SDS011;42889;51.112;13.772;2022-08-03T02:12:07;6.78;;;4.13;;
39196;SDS011;42889;51.112;13.772;2022-08-03T02:14:36;6.53;;;3.60;;
39196;SDS011;42889;51.112;13.772;2022-08-03T02:17:07;5.97;;;3.35;;
39196;SDS011;42889;51.112;13.772;2022-08-03T02:22:04;5.35;;;3.60;;
39196;SDS011;42889;51.112;13.772;2022-08-03T02:24:33;6.43;;;3.90;;
39196;SDS011;42889;51.112;13.772;2022-08-03T02:27:00;4.85;;;3.55;;
39196;SDS011;42889;51.112;13.772;2022-08-03T02:32:06;6.15;;;3.75;;
39196;SDS011;42889;51.112;13.772;2022-08-03T02:34:35;8.97;;;4.83;;
39196;SDS011;42889;51.112;13.772;2022-08-03T02:37:04;9.27;;;6.15;;
39196;SDS011;42889;51.112;13.772;2022-08-03T02:39:33;10.90;;;6.55;;
39196;SDS011;42889;51.112;13.772;2022-08-03T02:42:01;9.23;;;6.50;;
39196;SDS011;42889;51.112;13.772;2022-08-03T02:44:30;9.25;;;6.55;;
39196;SDS011;42889;51.112;13.772;2022-08-03T02:47:02;10.02;;;6.90;;
39196;SDS011;42889;51.112;13.772;2022-08-03T02:49:33;8.88;;;6.35;;
39196;SDS011;42889;51.112;13.772;2022-08-03T02:52:16;12.68;;;7.03;;
39196;SDS011;42889;51.112;13.772;2022-08-03T02:54:45;9.68;;;7.05;;
39196;SDS011;42889;51.112;13.772;2022-08-03T02:57:14;10.38;;;6.72;;
39196;SDS011;42889;51.112;13.772;2022-08-03T02:59:44;12.07;;;7.22;;
39196;SDS011;42889;51.112;13.772;2022-08-03T03:02:12;10.15;;;6.93;;
39196;SDS011;42889;51.112;13.772;2022-08-03T03:04:41;10.65;;;7.20;;
39196;SDS011;42889;51.112;13.772;2022-08-03T03:07:28;10.68;;;6.95;;
39196;SDS011;42889;51.112;13.772;2022-08-03T03:10:06;10.30;;;6.80;;
39196;SDS011;42889;51.112;13.772;2022-08-03T03:12:34;10.38;;;6.90;;
39196;SDS011;42889;51.112;13.772;2022-08-03T03:15:04;9.20;;;6.45;;
39196;SDS011;42889;51.112;13.772;2022-08-03T03:17:32;9.07;;;6.97;;
39196;SDS011;42889;51.112;13.772;2022-08-03T03:19:59;9.80;;;6.82;;
39196;SDS011;42889;51.112;13.772;2022-08-03T03:22:27;11.52;;;7.35;;
39196;SDS011;42889;51.112;13.772;2022-08-03T03:24:56;10.85;;;7.40;;
39196;SDS011;42889;51.112;13.772;2022-08-03T03:27:23;11.30;;;6.95;;
39196;SDS011;42889;51.112;13.772;2022-08-03T03:29:52;12.55;;;6.80;;
39196;SDS011;42889;51.112;13.772;2022-08-03T03:32:19;10.57;;;7.35;;
39196;SDS011;42889;51.112;13.772;2022-08-03T03:34:45;10.15;;;7.57;;
39196;SDS011;42889;51.112;13.772;2022-08-03T03:37:13;9.75;;;6.93;;
39196;SDS011;42889;51.112;13.772;2022-08-03T03:39:39;11.63;;;7.20;;
39196;SDS011;42889;51.112;13.772;2022-08-03T03:42:06;11.15;;;7.45;;
39196;SDS011;42889;51.112;13.772;2022-08-03T03:44:32;9.73;;;7.00;;
39196;SDS011;42889;51.112;13.772;2022-08-03T03:46:59;9.23;;;6.95;;
39196;SDS011;42889;51.112;13.772;2022-08-03T03:49:26;10.23;;;7.10;;
39196;SDS011;42889;51.112;13.772;2022-08-03T03:51:53;10.85;;;7.05;;
39196;SDS011;42889;51.112;13.772;2022-08-03T03:54:20;11.77;;;7.80;;
39196;SDS011;42889;51.112;13.772;2022-08-03T03:56:50;9.82;;;7.07;;
39196;SDS011;42889;51.112;13.772;2022-08-03T03:59:17;12.15;;;7.35;;
39196;SDS011;42889;51.112;13.772;2022-08-03T04:01:44;11.60;;;7.82;;
39196;SDS011;42889;51.112;13.772;2022-08-03T04:04:11;10.90;;;7.15;;
39196;SDS011;42889;51.112;13.772;2022-08-03T04:06:56;12.35;;;7.60;;
39196;SDS011;42889;51.112;13.772;2022-08-03T04:09:41;11.15;;;7.38;;
39196;SDS011;42889;51.112;13.772;2022-08-03T04:12:40;11.32;;;7.22;;
39196;SDS011;42889;51.112;13.772;2022-08-03T04:15:16;14.77;;;8.13;;
39196;SDS011;42889;51.112;13.772;2022-08-03T04:17:47;13.57;;;7.35;;
39196;SDS011;42889;51.112;13.772;2022-08-03T04:20:16;13.40;;;7.60;;
39196;SDS011;42889;51.112;13.772;2022-08-03T04:22:45;10.00;;;7.35;;
39196;SDS011;42889;51.112;13.772;2022-08-03T04:25:15;10.90;;;7.38;;
39196;SDS011;42889;51.112;13.772;2022-08-03T04:27:45;12.30;;;7.33;;
39196;SDS011;42889;51.112;13.772;2022-08-03T04:30:33;11.35;;;7.20;;
39196;SDS011;42889;51.112;13.772;2022-08-03T04:33:02;10.77;;;7.57;;
39196;SDS011;42889;51.112;13.772;2022-08-03T04:35:31;11.70;;;7.13;;
39196;SDS011;42889;51.112;13.772;2022-08-03T04:38:19;10.10;;;7.10;;
39196;SDS011;42889;51.112;13.772;2022-08-03T04:40:48;13.40;;;7.60;;
39196;SDS011;42889;51.112;13.772;2022-08-03T04:43:15;13.05;;;7.13;;
39196;SDS011;42889;51.112;13.772;2022-08-03T04:45:45;10.07;;;7.40;;
39196;SDS011;42889;51.112;13.772;2022-08-03T04:48:14;14.38;;;8.30;;
39196;SDS011;42889;51.112;13.772;2022-08-03T04:50:41;9.93;;;7.50;;
39196;SDS011;42889;51.112;13.772;2022-08-03T04:53:09;12.27;;;7.30;;
39196;SDS011;42889;51.112;13.772;2022-08-03T04:55:35;11.13;;;7.25;;
39196;SDS011;42889;51.112;13.772;2022-08-03T04:58:02;10.02;;;6.85;;
39196;SDS011;42889;51.112;13.772;2022-08-03T05:00:29;11.85;;;6.78;;
39196;SDS011;42889;51.112;13.772;2022-08-03T05:02:56;9.98;;;6.65;;
39196;SDS011;42889;51.112;13.772;2022-08-03T05:05:23;8.57;;;6.15;;
39196;SDS011;42889;51.112;13.772;2022-08-03T05:07:50;11.90;;;6.50;;
39196;SDS011;42889;51.112;13.772;2022-08-03T05:10:18;9.75;;;6.03;;
39196;SDS011;42889;51.112;13.772;2022-08-03T05:12:45;12.10;;;5.53;;
39196;SDS011;42889;51.112;13.772;2022-08-03T05:15:13;7.60;;;5.70;;
39196;SDS011;42889;51.112;13.772;2022-08-03T05:17:41;7.65;;;5.45;;
39196;SDS011;42889;51.112;13.772;2022-08-03T05:20:08;8.98;;;6.00;;
39196;SDS011;42889;51.112;13.772;2022-08-03T05:22:35;8.15;;;5.38;;
39196;SDS011;42889;51.112;13.772;2022-08-03T05:25:02;8.13;;;5.50;;
39196;SDS011;42889;51.112;13.772;2022-08-03T05:27:29;7.55;;;5.45;;
39196;SDS011;42889;51.112;13.772;2022-08-03T05:29:55;6.85;;;5.15;;
39196;SDS011;42889;51.112;13.772;2022-08-03T05:32:42;8.70;;;5.85;;
39196;SDS011;42889;51.112;13.772;2022-08-03T05:35:09;7.60;;;4.65;;
39196;SDS011;42889;51.112;13.772;2022-08-03T05:37:55;8.85;;;4.93;;
39196;SDS011;42889;51.112;13.772;2022-08-03T05:40:22;8.50;;;5.07;;
39196;SDS011;42889;51.112;13.772;2022-08-03T05:42:48;7.03;;;5.22;;
39196;SDS011;42889;51.112;13.772;2022-08-03T05:45:15;9.32;;;5.38;;
39196;SDS011;42889;51.112;13.772;2022-08-03T05:47:45;7.20;;;4.90;;
39196;SDS011;42889;51.112;13.772;2022-08-03T05:50:11;8.32;;;5.57;;
39196;SDS011;42889;51.112;13.772;2022-08-03T05:52:39;8.00;;;4.95;;
39196;SDS011;42889;51.112;13.772;2022-08-03T05:55:07;9.10;;;4.13;;
39196;SDS011;42889;51.112;13.772;2022-08-03T05:57:34;6.60;;;4.50;;
39196;SDS011;42889;51.112;13.772;2022-08-03T06:00:02;9.18;;;4.22;;
39196;SDS011;42889;51.112;13.772;2022-08-03T06:02:31;9.07;;;4.70;;
39196;SDS011;42889;51.112;13.772;2022-08-03T06:04:57;8.57;;;4.15;;
39196;SDS011;42889;51.112;13.772;2022-08-03T06:07:24;8.18;;;4.07;;
39196;SDS011;42889;51.112;13.772;2022-08-03T06:09:51;10.40;;;4.05;;
39196;SDS011;42889;51.112;13.772;2022-08-03T06:12:37;6.78;;;3.72;;
39196;SDS011;42889;51.112;13.772;2022-08-03T06:15:06;13.57;;;4.38;;
39196;SDS011;42889;51.112;13.772;2022-08-03T06:17:43;9.23;;;3.83;;
39196;SDS011;42889;51.112;13.772;2022-08-03T06:20:10;10.85;;;3.58;;
39196;SDS011;42889;51.112;13.772;2022-08-03T06:22:45;10.65;;;3.22;;
39196;SDS011;42889;51.112;13.772;2022-08-03T06:25:16;7.53;;;2.90;;
39196;SDS011;42889;51.112;13.772;2022-08-03T06:27:46;8.45;;;3.10;;
39196;SDS011;42889;51.112;13.772;2022-08-03T06:30:13;7.18;;;3.13;;
39196;SDS011;42889;51.112;13.772;2022-08-03T06:32:46;8.65;;;2.90;;
39196;SDS011;42889;51.112;13.772;2022-08-03T06:35:17;5.57;;;2.60;;
39196;SDS011;42889;51.112;13.772;2022-08-03T06:37:45;6.22;;;2.63;;
39196;SDS011;42889;51.112;13.772;2022-08-03T06:40:14;7.45;;;2.60;;
39196;SDS011;42889;51.112;13.772;2022-08-03T06:42:49;6.40;;;2.50;;
39196;SDS011;42889;51.112;13.772;2022-08-03T06:45:16;7.05;;;2.60;;
39196;SDS011;42889;51.112;13.772;2022-08-03T06:47:46;6.90;;;2.45;;
39196;SDS011;42889;51.112;13.772;2022-08-03T06:50:27;6.32;;;2.30;;
39196;SDS011;42889;51.112;13.772;2022-08-03T06:52:54;4.53;;;2.38;;
39196;SDS011;42889;51.112;13.772;2022-08-03T06:55:20;6.75;;;2.08;;
39196;SDS011;42889;51.112;13.772;2022-08-03T06:57:47;7.15;;;1.95;;
39196;SDS011;42889;51.112;13.772;2022-08-03T07:00:14;5.10;;;2.35;;
39196;SDS011;42889;51.112;13.772;2022-08-03T07:02:40;4.63;;;2.00;;
39196;SDS011;42889;51.112;13.772;2022-08-03T07:05:07;4.75;;;1.90;;
39196;SDS011;42889;51.112;13.772;2022-08-03T07:07:35;4.90;;;1.90;;
39196;SDS011;42889;51.112;13.772;2022-08-03T07:10:02;5.07;;;1.60;;
39196;SDS011;42889;51.112;13.772;2022-08-03T07:12:30;4.72;;;1.73;;
39196;SDS011;42889;51.112;13.772;2022-08-03T07:14:59;6.70;;;1.90;;
39196;SDS011;42889;51.112;13.772;2022-08-03T07:17:28;3.93;;;1.70;;
39196;SDS011;42889;51.112;13.772;2022-08-03T07:19:56;6.72;;;2.00;;
39196;SDS011;42889;51.112;13.772;2022-08-03T07:22:24;6.10;;;1.73;;
39196;SDS011;42889;51.112;13.772;2022-08-03T07:24:51;6.72;;;1.80;;
39196;SDS011;42889;51.112;13.772;2022-08-03T07:27:18;5.40;;;1.73;;
39196;SDS011;42889;51.112;13.772;2022-08-03T07:29:44;3.70;;;1.77;;
39196;SDS011;42889;51.112;13.772;2022-08-03T07:32:11;5.55;;;2.00;;
39196;SDS011;42889;51.112;13.772;2022-08-03T07:34:37;3.50;;;1.85;;
39196;SDS011;42889;51.112;13.772;2022-08-03T07:37:04;7.13;;;2.10;;
39196;SDS011;42889;51.112;13.772;2022-08-03T07:39:30;6.03;;;2.00;;
39196;SDS011;42889;51.112;13.772;2022-08-03T07:41:57;3.20;;;1.80;;
39196;SDS011;42889;51.112;13.772;2022-08-03T07:44:23;6.60;;;1.80;;
39196;SDS011;42889;51.112;13.772;2022-08-03T07:46:50;3.90;;;1.80;;
39196;SDS011;42889;51.112;13.772;2022-08-03T07:49:17;2.70;;;1.60;;
39196;SDS011;42889;51.112;13.772;2022-08-03T07:51:43;5.93;;;2.25;;
39196;SDS011;42889;51.112;13.772;2022-08-03T07:54:10;3.75;;;2.17;;
39196;SDS011;42889;51.112;13.772;2022-08-03T07:56:37;3.20;;;1.90;;
39196;SDS011;42889;51.112;13.772;2022-08-03T07:59:04;3.30;;;1.80;;
39196;SDS011;42889;51.112;13.772;2022-08-03T08:01:31;2.90;;;1.60;;
39196;SDS011;42889;51.112;13.772;2022-08-03T08:04:01;3.78;;;1.50;;
39196;SDS011;42889;51.112;13.772;2022-08-03T08:06:27;5.78;;;1.40;;
39196;SDS011;42889;51.112;13.772;2022-08-03T08:08:54;3.55;;;1.27;;
39196;SDS011;42889;51.112;13.772;2022-08-03T08:13:51;3.65;;;1.40;;
39196;SDS011;42889;51.112;13.772;2022-08-03T08:16:17;2.42;;;1.40;;
39196;SDS011;42889;51.112;13.772;2022-08-03T08:18:44;5.57;;;1.77;;
39196;SDS011;42889;51.112;13.772;2022-08-03T08:21:10;2.85;;;1.35;;
39196;SDS011;42889;51.112;13.772;2022-08-03T08:23:37;4.28;;;1.50;;
39196;SDS011;42889;51.112;13.772;2022-08-03T08:26:11;5.63;;;1.30;;
39196;SDS011;42889;51.112;13.772;2022-08-03T08:28:38;2.97;;;1.50;;
39196;SDS011;42889;51.112;13.772;2022-08-03T08:31:04;3.83;;;1.30;;
39196;SDS011;42889;51.112;13.772;2022-08-03T08:33:31;3.70;;;1.20;;
39196;SDS011;42889;51.112;13.772;2022-08-03T08:36:19;2.95;;;1.40;;
39196;SDS011;42889;51.112;13.772;2022-08-03T08:38:46;2.60;;;1.48;;
39196;SDS011;42889;51.112;13.772;2022-08-03T08:41:13;2.67;;;1.40;;
39196;SDS011;42889;51.112;13.772;2022-08-03T08:43:41;4.55;;;1.42;;
39196;SDS011;42889;51.112;13.772;2022-08-03T08:46:11;4.80;;;1.25;;
39196;SDS011;42889;51.112;13.772;2022-08-03T08:48:49;2.85;;;1.20;;
39196;SDS011;42889;51.112;13.772;2022-08-03T08:51:17;2.22;;;1.15;;
39196;SDS011;42889;51.112;13.772;2022-08-03T08:53:50;2.13;;;1.00;;
39196;SDS011;42889;51.112;13.772;2022-08-03T08:56:19;2.08;;;1.10;;
39196;SDS011;42889;51.112;13.772;2022-08-03T08:58:50;1.92;;;0.90;;
39196;SDS011;42889;51.112;13.772;2022-08-03T09:01:18;4.03;;;1.20;;
39196;SDS011;42889;51.112;13.772;2022-08-03T09:03:45;2.47;;;1.00;;
39196;SDS011;42889;51.112;13.772;2022-08-03T09:06:12;2.88;;;0.98;;
39196;SDS011;42889;51.112;13.772;2022-08-03T09:08:40;2.10;;;1.00;;
39196;SDS011;42889;51.112;13.772;2022-08-03T09:11:06;2.50;;;1.02;;
39196;SDS011;42889;51.112;13.772;2022-08-03T09:13:37;1.48;;;0.90;;
39196;SDS011;42889;51.112;13.772;2022-08-03T09:16:11;4.65;;;0.80;;
39196;SDS011;42889;51.112;13.772;2022-08-03T09:18:38;4.47;;;0.80;;
39196;SDS011;42889;51.112;13.772;2022-08-03T09:24:01;2.72;;;0.82;;
39196;SDS011;42889;51.112;13.772;2022-08-03T09:26:32;4.97;;;0.80;;
39196;SDS011;42889;51.112;13.772;2022-08-03T09:29:04;2.57;;;0.80;;
39196;SDS011;42889;51.112;13.772;2022-08-03T09:31:41;4.80;;;0.93;;
39196;SDS011;42889;51.112;13.772;2022-08-03T09:34:13;2.83;;;0.80;;
39196;SDS011;42889;51.112;13.772;2022-08-03T09:36:44;2.75;;;0.90;;
39196;SDS011;42889;51.112;13.772;2022-08-03T09:39:14;1.88;;;0.93;;
39196;SDS011;42889;51.112;13.772;2022-08-03T09:41:43;3.20;;;0.90;;
39196;SDS011;42889;51.112;13.772;2022-08-03T09:44:14;3.05;;;0.98;;
39196;SDS011;42889;51.112;13.772;2022-08-03T09:46:54;4.90;;;0.80;;
39196;SDS011;42889;51.112;13.772;2022-08-03T09:49:22;3.25;;;1.10;;
39196;SDS011;42889;51.112;13.772;2022-08-03T09:51:49;1.77;;;0.75;;
39196;SDS011;42889;51.112;13.772;2022-08-03T09:54:36;3.50;;;0.90;;
39196;SDS011;42889;51.112;13.772;2022-08-03T09:57:03;4.40;;;0.85;;
39196;SDS011;42889;51.112;13.772;2022-08-03T09:59:30;4.72;;;1.00;;
39196;SDS011;42889;51.112;13.772;2022-08-03T10:01:59;4.00;;;0.73;;
39196;SDS011;42889;51.112;13.772;2022-08-03T10:04:27;3.38;;;1.00;;
39196;SDS011;42889;51.112;13.772;2022-08-03T10:07:01;2.97;;;0.80;;
39196;SDS011;42889;51.112;13.772;2022-08-03T10:09:28;1.50;;;0.70;;
39196;SDS011;42889;51.112;13.772;2022-08-03T10:11:54;2.75;;;0.80;;
39196;SDS011;42889;51.112;13.772;2022-08-03T10:14:21;2.47;;;0.70;;
39196;SDS011;42889;51.112;13.772;2022-08-03T10:16:48;2.30;;;0.80;;
39196;SDS011;42889;51.112;13.772;2022-08-03T10:19:15;1.67;;;0.60;;
39196;SDS011;42889;51.112;13.772;2022-08-03T10:21:47;2.67;;;0.50;;
39196;SDS011;42889;51.112;13.772;2022-08-03T10:24:17;1.67;;;0.60;;
39196;SDS011;42889;51.112;13.772;2022-08-03T10:26:49;2.00;;;0.70;;
39196;SDS011;42889;51.112;13.772;2022-08-03T10:29:17;2.47;;;0.85;;
39196;SDS011;42889;51.112;13.772;2022-08-03T10:31:49;3.63;;;0.65;;
39196;SDS011;42889;51.112;13.772;2022-08-03T10:34:28;2.60;;;0.65;;
39196;SDS011;42889;51.112;13.772;2022-08-03T10:36:59;2.95;;;0.88;;
39196;SDS011;42889;51.112;13.772;2022-08-03T10:39:33;2.78;;;0.68;;
39196;SDS011;42889;51.112;13.772;2022-08-03T10:42:01;2.65;;;0.85;;
39196;SDS011;42889;51.112;13.772;2022-08-03T10:44:39;3.13;;;0.70;;
39196;SDS011;42889;51.112;13.772;2022-08-03T10:47:08;4.00;;;0.80;;
39196;SDS011;42889;51.112;13.772;2022-08-03T10:49:35;4.07;;;0.77;;
39196;SDS011;42889;51.112;13.772;2022-08-03T10:52:03;1.38;;;0.77;;
39196;SDS011;42889;51.112;13.772;2022-08-03T10:54:44;2.13;;;0.82;;
39196;SDS011;42889;51.112;13.772;2022-08-03T11:00:21;1.65;;;0.70;;
39196;SDS011;42889;51.112;13.772;2022-08-03T11:03:05;2.97;;;0.80;;
39196;SDS011;42889;51.112;13.772;2022-08-03T11:05:35;2.40;;;0.80;;
39196;SDS011;42889;51.112;13.772;2022-08-03T11:08:24;3.05;;;0.68;;
39196;SDS011;42889;51.112;13.772;2022-08-03T11:10:57;2.97;;;0.70;;
39196;SDS011;42889;51.112;13.772;2022-08-03T11:14:02;1.45;;;0.60;;
39196;SDS011;42889;51.112;13.772;2022-08-03T11:16:31;1.73;;;0.73;;
39196;SDS011;42889;51.112;13.772;2022-08-03T11:19:14;2.47;;;0.80;;
39196;SDS011;42889;51.112;13.772;2022-08-03T11:25:01;1.85;;;0.60;;
39196;SDS011;42889;51.112;13.772;2022-08-03T11:27:15;4.88;;;0.75;;
39196;SDS011;42889;51.112;13.772;2022-08-03T11:29:56;3.65;;;0.75;;
39196;SDS011;42889;51.112;13.772;2022-08-03T11:35:18;3.58;;;0.80;;
39196;SDS011;42889;51.112;13.772;2022-08-03T11:42:58;4.20;;;0.70;;
39196;SDS011;42889;51.112;13.772;2022-08-03T11:45:24;3.80;;;0.60;;
39196;SDS011;42889;51.112;13.772;2022-08-03T11:47:52;3.88;;;0.70;;
39196;SDS011;42889;51.112;13.772;2022-08-03T11:50:20;2.33;;;0.80;;
39196;SDS011;42889;51.112;13.772;2022-08-03T11:52:47;3.85;;;0.90;;
39196;SDS011;42889;51.112;13.772;2022-08-03T11:55:16;3.50;;;0.80;;
39196;SDS011;42889;51.112;13.772;2022-08-03T11:57:46;2.58;;;0.80;;
39196;SDS011;42889;51.112;13.772;2022-08-03T12:00:32;2.95;;;0.68;;
39196;SDS011;42889;51.112;13.772;2022-08-03T12:03:06;2.90;;;0.57;;
39196;SDS011;42889;51.112;13.772;2022-08-03T12:05:41;2.17;;;0.40;;
39196;SDS011;42889;51.112;13.772;2022-08-03T12:10:54;1.95;;;0.70;;
39196;SDS011;42889;51.112;13.772;2022-08-03T12:13:22;4.38;;;0.80;;
39196;SDS011;42889;51.112;13.772;2022-08-03T12:16:16;3.63;;;0.63;;
39196;SDS011;42889;51.112;13.772;2022-08-03T12:18:45;4.07;;;0.88;;
39196;SDS011;42889;51.112;13.772;2022-08-03T12:21:28;2.65;;;0.70;;
39196;SDS011;42889;51.112;13.772;2022-08-03T12:23:56;3.83;;;0.70;;
39196;SDS011;42889;51.112;13.772;2022-08-03T12:26:26;4.03;;;0.60;;
39196;SDS011;42889;51.112;13.772;2022-08-03T12:28:53;3.15;;;0.60;;
39196;SDS011;42889;51.112;13.772;2022-08-03T12:31:20;2.92;;;0.70;;
39196;SDS011;42889;51.112;13.772;2022-08-03T12:33:54;1.95;;;0.60;;
39196;SDS011;42889;51.112;13.772;2022-08-03T12:36:27;3.10;;;0.65;;
39196;SDS011;42889;51.112;13.772;2022-08-03T12:38:56;5.43;;;0.70;;
39196;SDS011;42889;51.112;13.772;2022-08-03T12:41:31;2.20;;;0.55;;
39196;SDS011;42889;51.112;13.772;2022-08-03T12:43:59;2.05;;;0.73;;
39196;SDS011;42889;51.112;13.772;2022-08-03T12:46:34;1.80;;;0.60;;
39196;SDS011;42889;51.112;13.772;2022-08-03T12:52:04;2.75;;;0.70;;
39196;SDS011;42889;51.112;13.772;2022-08-03T12:54:57;1.98;;;0.50;;
39196;SDS011;42889;51.112;13.772;2022-08-03T12:57:38;1.60;;;0.50;;
39196;SDS011;42889;51.112;13.772;2022-08-03T13:00:13;2.72;;;0.50;;
39196;SDS011;42889;51.112;13.772;2022-08-03T13:03:04;1.20;;;0.60;;
39196;SDS011;42889;51.112;13.772;2022-08-03T13:05:52;3.08;;;0.70;;
39196;SDS011;42889;51.112;13.772;2022-08-03T13:08:23;1.42;;;0.60;;
39196;SDS011;42889;51.112;13.772;2022-08-03T13:10:56;2.92;;;0.60;;
39196;SDS011;42889;51.112;13.772;2022-08-03T13:13:38;2.33;;;0.70;;
39196;SDS011;42889;51.112;13.772;2022-08-03T13:16:05;2.40;;;0.68;;
39196;SDS011;42889;51.112;13.772;2022-08-03T13:18:41;1.75;;;0.60;;
39196;SDS011;42889;51.112;13.772;2022-08-03T13:21:26;2.40;;;0.50;;
39196;SDS011;42889;51.112;13.772;2022-08-03T13:23:57;2.28;;;0.82;;
39196;SDS011;42889;51.112;13.772;2022-08-03T13:26:50;1.92;;;0.68;;
39196;SDS011;42889;51.112;13.772;2022-08-03T13:29:22;3.00;;;0.70;;
39196;SDS011;42889;51.112;13.772;2022-08-03T13:31:49;3.38;;;0.80;;
39196;SDS011;42889;51.112;13.772;2022-08-03T13:37:44;4.43;;;0.85;;
39196;SDS011;42889;51.112;13.772;2022-08-03T13:40:16;2.42;;;0.70;;
39196;SDS011;42889;51.112;13.772;2022-08-03T13:43:14;2.92;;;0.82;;
39196;SDS011;42889;51.112;13.772;2022-08-03T13:45:53;4.35;;;0.68;;
39196;SDS011;42889;51.112;13.772;2022-08-03T13:48:33;6.05;;;0.80;;
39196;SDS011;42889;51.112;13.772;2022-08-03T13:52:15;4.78;;;0.60;;
39196;SDS011;42889;51.112;13.772;2022-08-03T13:55:00;5.17;;;0.83;;
39196;SDS011;42889;51.112;13.772;2022-08-03T14:04:39;1.80;;;0.55;;
39196;SDS011;42889;51.112;13.772;2022-08-03T14:07:05;1.30;;;0.60;;
39196;SDS011;42889;51.112;13.772;2022-08-03T14:09:34;2.22;;;0.60;;
39196;SDS011;42889;51.112;13.772;2022-08-03T14:12:04;1.33;;;0.68;;
39196;SDS011;42889;51.112;13.772;2022-08-03T14:14:34;1.67;;;0.60;;
39196;SDS011;42889;51.112;13.772;2022-08-03T14:17:02;3.72;;;0.70;;
39196;SDS011;42889;51.112;13.772;2022-08-03T14:19:29;2.20;;;0.65;;
39196;SDS011;42889;51.112;13.772;2022-08-03T14:21:56;2.25;;;0.60;;
39196;SDS011;42889;51.112;13.772;2022-08-03T14:24:51;2.47;;;0.80;;
39196;SDS011;42889;51.112;13.772;2022-08-03T14:27:25;2.38;;;0.60;;
39196;SDS011;42889;51.112;13.772;2022-08-03T14:30:36;2.47;;;0.73;;
39196;SDS011;42889;51.112;13.772;2022-08-03T14:33:08;4.65;;;0.90;;
39196;SDS011;42889;51.112;13.772;2022-08-03T14:35:43;4.00;;;0.60;;
39196;SDS011;42889;51.112;13.772;2022-08-03T14:51:09;4.45;;;0.77;;
39196;SDS011;42889;51.112;13.772;2022-08-03T14:56:54;3.95;;;0.60;;
39196;SDS011;42889;51.112;13.772;2022-08-03T14:59:58;2.78;;;0.82;;
39196;SDS011;42889;51.112;13.772;2022-08-03T15:02:33;3.33;;;0.70;;
39196;SDS011;42889;51.112;13.772;2022-08-03T15:10:35;1.77;;;0.90;;
39196;SDS011;42889;51.112;13.772;2022-08-03T15:17:59;1.95;;;0.50;;
39196;SDS011;42889;51.112;13.772;2022-08-03T15:20:26;2.85;;;0.88;;
39196;SDS011;42889;51.112;13.772;2022-08-03T15:23:08;2.05;;;0.80;;
39196;SDS011;42889;51.112;13.772;2022-08-03T15:25:35;2.83;;;0.80;;
39196;SDS011;42889;51.112;13.772;2022-08-03T15:28:21;3.65;;;0.75;;
39196;SDS011;42889;51.112;13.772;2022-08-03T15:30:50;3.65;;;0.70;;
39196;SDS011;42889;51.112;13.772;2022-08-03T15:33:17;2.10;;;1.00;;
39196;SDS011;42889;51.112;13.772;2022-08-03T15:35:44;2.45;;;0.73;;
39196;SDS011;42889;51.112;13.772;2022-08-03T15:38:12;3.42;;;0.90;;
39196;SDS011;42889;51.112;13.772;2022-08-03T15:40:38;5.38;;;1.20;;
39196;SDS011;42889;51.112;13.772;2022-08-03T15:43:05;4.15;;;0.93;;
39196;SDS011;42889;51.112;13.772;2022-08-03T15:45:32;2.25;;;0.80;;
39196;SDS011;42889;51.112;13.772;2022-08-03T15:48:01;3.65;;;0.90;;
39196;SDS011;42889;51.112;13.772;2022-08-03T15:50:28;1.20;;;0.60;;
39196;SDS011;42889;51.112;13.772;2022-08-03T15:52:55;2.47;;;0.75;;
39196;SDS011;42889;51.112;13.772;2022-08-03T15:55:22;1.73;;;0.93;;
39196;SDS011;42889;51.112;13.772;2022-08-03T15:57:48;3.42;;;0.80;;
39196;SDS011;42889;51.112;13.772;2022-08-03T16:00:35;2.22;;;0.75;;
39196;SDS011;42889;51.112;13.772;2022-08-03T16:03:05;4.35;;;0.98;;
39196;SDS011;42889;51.112;13.772;2022-08-03T16:05:32;2.42;;;1.00;;
39196;SDS011;42889;51.112;13.772;2022-08-03T16:07:59;1.58;;;0.80;;
39196;SDS011;42889;51.112;13.772;2022-08-03T16:10:30;3.58;;;0.80;;
39196;SDS011;42889;51.112;13.772;2022-08-03T16:13:01;2.85;;;0.93;;
39196;SDS011;42889;51.112;13.772;2022-08-03T16:15:28;3.53;;;0.88;;
39196;SDS011;42889;51.112;13.772;2022-08-03T16:17:54;3.10;;;1.00;;
39196;SDS011;42889;51.112;13.772;2022-08-03T16:20:34;3.00;;;0.93;;